Pagrindinis puslapis
METAR-TAF:

METAR-TAF

Oro uostai :

Malacca, Malaizija

platuma: 02-16N, ilguma: 102-15E, Aukštis: 11 m

Dabartinis oras

Ataskaita buvo paskelbta 39 minutes, ne 18:00 UTC
Vėjas 1 kt nuo kintamojo kryptimis
Temperatūra 25°C
Drėgmė 94%
Slėgis 1010 hPa
Matomumas 10 km arba daugiau
Mažai debesys ne aukštis 2800 ft

METAR: WMKM 251800Z VRB01KT 9999 FEW028 25/24 Q1010

Laikas: 02:39 (18:39 UTC)

Prognozė

Ataskaita buvo paskelbta 1 valandą ir 39 minutes, ne 17:00 UTC
Prognozė galioja nuo 25 metu 18 UTC su 26 metu 18 UTC
Vėjas 3 kt nuo kintamojo kryptimis
Matomumas 10 km arba daugiau
Mažai debesys ne aukštis 3000 ft
Laikinai
nuo 26 metu 08 UTC su 26 metu 12 UTC
Matomumas: 4000 m
Mažai debesys ne aukštis 1000 ft
Mažai debesys ne aukštis 1700 ft, Liūtiniai kamuoliniai debesys.
Išsisklaidę debesys ne aukštis 1900 ft
perkūnija, lietus

TAF: WMKM 251700Z 2518/2618 VRB03KT 9999 FEW030 TEMPO 2608/2612 4000 TSRA FEW010 FEW017CB SCT019

Orai ataskaitas ir orų prognozės (METAR, TAF).

turimą stotys yra geltonos ir raudonos taškus žemėlapyje.

Perkelti pele per norėdami pamatyti stoties vardą.

Tada spustelėkite, norėdami matyti oro stebėjimo ir prognozės.

Norėdami pakeisti žemėlapį: spustelėkite ant žalios mygtukų su juodo kryžiaus žemyn,; žalią mygtuką su brūkšneliu, jei norite nutolinti; arba žalių rodyklių gretimoms žemėlapius.


METAR-TAF: